createdAt,value
2023-11-01T00:02:18.982Z,9.40
2023-11-01T00:04:46.808Z,9.50
2023-11-01T00:07:13.748Z,9.50
2023-11-01T00:09:42.434Z,9.60
2023-11-01T00:12:09.495Z,9.60
2023-11-01T00:14:37.599Z,9.60
2023-11-01T00:17:06.498Z,9.60
2023-11-01T00:19:33.398Z,9.60
2023-11-01T00:22:00.107Z,9.60
2023-11-01T00:24:27.483Z,9.50
2023-11-01T00:26:55.271Z,9.40
2023-11-01T00:29:22.267Z,9.30
2023-11-01T00:31:51.009Z,9.20
2023-11-01T00:34:17.643Z,9.10
2023-11-01T00:36:44.569Z,9.00
2023-11-01T00:39:11.499Z,8.90
2023-11-01T00:41:42.966Z,8.80
2023-11-01T00:44:10.436Z,8.80
2023-11-01T00:46:37.905Z,8.70
2023-11-01T00:49:04.814Z,8.60
2023-11-01T00:51:31.447Z,8.60
2023-11-01T00:53:58.294Z,8.50
2023-11-01T00:56:32.603Z,8.50
2023-11-01T00:59:02.728Z,8.40
2023-11-01T01:01:29.430Z,8.30
2023-11-01T01:03:56.214Z,8.30
2023-11-01T01:06:22.892Z,8.20
2023-11-01T01:08:50.050Z,8.20
2023-11-01T01:11:18.681Z,8.10
2023-11-01T01:13:46.582Z,8.00
2023-11-01T01:16:13.514Z,8.00
2023-11-01T01:18:40.663Z,7.90
2023-11-01T01:21:09.691Z,7.80
2023-11-01T01:23:36.563Z,7.70
2023-11-01T01:26:03.819Z,7.60
2023-11-01T01:28:30.764Z,7.40
2023-11-01T01:30:57.616Z,7.40
2023-11-01T01:33:26.868Z,7.30
2023-11-01T01:35:56.484Z,7.30
2023-11-01T01:38:27.426Z,7.20
2023-11-01T01:40:54.122Z,7.20
2023-11-01T01:43:22.596Z,7.10
2023-11-01T01:45:54.682Z,7.10
2023-11-01T01:48:24.822Z,7.10
2023-11-01T01:50:51.534Z,7.00
2023-11-01T01:53:19.143Z,7.00
2023-11-01T01:55:49.161Z,7.00
2023-11-01T01:58:16.280Z,7.00
2023-11-01T02:00:46.488Z,7.10
2023-11-01T02:03:16.300Z,7.10
2023-11-01T02:05:43.652Z,7.10
2023-11-01T02:08:10.369Z,7.10
2023-11-01T02:10:38.132Z,7.10
2023-11-01T02:13:16.201Z,7.10
2023-11-01T02:15:44.404Z,7.10
2023-11-01T02:18:13.471Z,7.10
2023-11-01T02:20:42.053Z,7.10
2023-11-01T02:23:09.673Z,7.10
2023-11-01T02:25:36.488Z,7.10
2023-11-01T02:28:07.307Z,7.20
2023-11-01T02:30:34.183Z,7.30
2023-11-01T02:33:01.236Z,7.30
2023-11-01T02:35:29.703Z,7.50
2023-11-01T02:37:56.581Z,7.60
2023-11-01T02:40:23.353Z,7.80
2023-11-01T02:42:52.700Z,7.90
2023-11-01T02:45:19.378Z,8.00
2023-11-01T02:47:46.141Z,8.10
2023-11-01T02:50:14.934Z,8.10
2023-11-01T02:52:42.913Z,8.20
2023-11-01T02:55:11.561Z,8.20
2023-11-01T02:57:40.046Z,8.20
2023-11-01T03:00:09.170Z,8.30
2023-11-01T03:02:37.286Z,8.30
2023-11-01T03:05:04.606Z,8.30
2023-11-01T03:07:31.806Z,8.30
2023-11-01T03:09:58.582Z,8.30
2023-11-01T03:12:25.438Z,8.30
2023-11-01T03:14:52.767Z,8.30
2023-11-01T03:17:22.625Z,8.30
2023-11-01T03:19:49.444Z,8.30
2023-11-01T03:22:16.103Z,8.30
2023-11-01T03:24:45.124Z,8.30
2023-11-01T03:27:11.744Z,8.30
2023-11-01T03:29:39.029Z,8.30
2023-11-01T03:32:06.838Z,8.30
2023-11-01T03:34:33.794Z,8.30
2023-11-01T03:37:00.470Z,8.40
2023-11-01T03:39:28.482Z,8.40
2023-11-01T03:41:55.145Z,8.40
2023-11-01T03:44:22.674Z,8.40
2023-11-01T03:46:49.518Z,8.30
2023-11-01T03:49:16.418Z,8.30
2023-11-01T03:51:44.528Z,8.30
2023-11-01T03:54:11.849Z,8.30
2023-11-01T03:56:43.441Z,8.30
2023-11-01T03:59:10.588Z,8.30
2023-11-01T04:01:40.494Z,8.20
2023-11-01T04:04:07.778Z,8.20
2023-11-01T04:06:34.746Z,8.10
2023-11-01T04:09:01.385Z,8.10
2023-11-01T04:11:31.112Z,8.00
2023-11-01T04:13:58.221Z,7.90
2023-11-01T04:16:33.932Z,7.80
2023-11-01T04:19:04.645Z,7.70
2023-11-01T04:21:31.606Z,7.60
2023-11-01T04:23:58.232Z,7.50
2023-11-01T04:26:25.228Z,7.50
2023-11-01T04:28:53.489Z,7.40
2023-11-01T04:31:25.946Z,7.30
2023-11-01T04:33:53.047Z,7.30
2023-11-01T04:36:27.260Z,7.20
2023-11-01T04:38:55.067Z,7.20
2023-11-01T04:41:23.080Z,7.10
2023-11-01T04:43:49.992Z,7.10
2023-11-01T04:46:16.954Z,7.20
2023-11-01T04:48:43.661Z,7.20
2023-11-01T04:51:13.131Z,7.10
2023-11-01T04:53:40.398Z,7.10
2023-11-01T04:56:10.837Z,7.10
2023-11-01T04:58:38.481Z,7.00
2023-11-01T05:01:07.169Z,7.00
2023-11-01T05:03:40.402Z,6.90
2023-11-01T05:06:08.721Z,6.80
2023-11-01T05:08:38.734Z,6.80
2023-11-01T05:11:06.611Z,6.70
2023-11-01T05:13:33.960Z,6.60
2023-11-01T05:16:00.679Z,6.60
2023-11-01T05:18:28.808Z,6.50
2023-11-01T05:20:55.577Z,6.50
2023-11-01T05:23:23.662Z,6.50
2023-11-01T05:25:51.095Z,6.40
2023-11-01T05:28:18.436Z,6.30
2023-11-01T05:30:48.847Z,6.30
2023-11-01T05:33:15.714Z,6.30
2023-11-01T05:35:44.606Z,6.20
2023-11-01T05:38:11.635Z,6.20
2023-11-01T05:40:38.734Z,6.20
2023-11-01T05:43:06.546Z,6.20
2023-11-01T05:45:33.711Z,6.30
2023-11-01T05:48:08.068Z,6.20
2023-11-01T05:50:35.793Z,6.30
2023-11-01T05:53:03.965Z,6.30
2023-11-01T05:55:38.542Z,6.30
2023-11-01T05:58:15.810Z,6.30
2023-11-01T06:00:42.774Z,6.30
2023-11-01T06:03:10.090Z,6.30
2023-11-01T06:05:40.483Z,6.30
2023-11-01T06:08:10.497Z,6.30
2023-11-01T06:10:38.010Z,6.40
2023-11-01T06:13:05.321Z,6.30
2023-11-01T06:15:33.265Z,6.30
2023-11-01T06:18:00.058Z,6.30
2023-11-01T06:20:26.817Z,6.30
2023-11-01T06:22:53.736Z,6.30
2023-11-01T06:25:21.885Z,6.30
2023-11-01T06:27:49.151Z,6.30
2023-11-01T06:30:17.465Z,6.30
2023-11-01T06:32:44.497Z,6.30
2023-11-01T06:35:11.302Z,6.30
2023-11-01T06:37:38.180Z,6.30
2023-11-01T06:40:06.535Z,6.30
2023-11-01T06:42:35.360Z,6.30
2023-11-01T06:45:03.469Z,6.30
2023-11-01T06:47:32.659Z,6.30
2023-11-01T06:49:59.612Z,6.30
2023-11-01T06:52:29.397Z,6.40
2023-11-01T06:54:56.363Z,6.50
2023-11-01T06:57:23.821Z,6.60
2023-11-01T06:59:50.520Z,6.80
2023-11-01T07:02:17.279Z,6.80
2023-11-01T07:04:44.063Z,7.00
2023-11-01T07:07:14.710Z,7.10
2023-11-01T07:09:42.425Z,7.30
2023-11-01T07:12:09.370Z,7.40
2023-11-01T07:14:36.036Z,7.60
2023-11-01T07:17:02.999Z,7.60
2023-11-01T07:19:29.657Z,7.80
2023-11-01T07:21:56.501Z,7.80
2023-11-01T07:24:23.115Z,7.90
2023-11-01T07:26:49.834Z,8.00
2023-11-01T07:29:16.578Z,8.10
2023-11-01T07:31:43.920Z,8.20
2023-11-01T07:34:13.414Z,8.30
2023-11-01T07:36:40.065Z,8.40
2023-11-01T07:39:07.737Z,8.40
2023-11-01T07:41:37.523Z,8.50
2023-11-01T07:44:04.473Z,8.60
2023-11-01T07:46:31.172Z,8.70
2023-11-01T07:49:03.681Z,8.90
2023-11-01T07:51:31.740Z,9.00
2023-11-01T07:54:01.781Z,9.20
2023-11-01T07:56:28.513Z,9.30
2023-11-01T07:58:55.584Z,9.60
2023-11-01T08:01:22.980Z,9.70
2023-11-01T08:03:53.394Z,9.90
2023-11-01T08:06:20.321Z,10.10
2023-11-01T08:08:48.652Z,10.20
2023-11-01T08:11:17.935Z,10.30
2023-11-01T08:13:44.647Z,10.40
2023-11-01T08:16:11.776Z,10.60
2023-11-01T08:18:38.693Z,10.80
2023-11-01T08:21:06.423Z,10.90
2023-11-01T08:23:33.172Z,11.00
2023-11-01T08:26:03.927Z,11.10
2023-11-01T08:28:31.564Z,11.20
2023-11-01T08:30:59.646Z,11.30
2023-11-01T08:33:27.260Z,11.40
2023-11-01T08:35:56.477Z,11.60
2023-11-01T08:38:23.304Z,11.70
2023-11-01T08:40:49.998Z,11.80
2023-11-01T08:43:18.647Z,11.80
2023-11-01T08:45:45.448Z,11.90
2023-11-01T08:48:14.200Z,12.00
2023-11-01T08:50:41.332Z,12.20
2023-11-01T08:53:15.785Z,12.30
2023-11-01T08:55:42.518Z,12.30
2023-11-01T08:58:11.409Z,12.50
2023-11-01T09:00:45.851Z,12.60
2023-11-01T09:03:19.565Z,12.60
2023-11-01T09:05:47.380Z,12.70
2023-11-01T09:08:15.385Z,12.70
2023-11-01T09:10:53.766Z,12.80
2023-11-01T09:13:27.830Z,12.90
2023-11-01T09:15:55.541Z,13.00
2023-11-01T09:18:22.847Z,13.00
2023-11-01T09:20:50.344Z,13.10
2023-11-01T09:23:17.264Z,13.20
2023-11-01T09:25:44.036Z,13.30
2023-11-01T09:28:10.915Z,13.40
2023-11-01T09:30:37.648Z,13.50
2023-11-01T09:33:05.726Z,13.60
2023-11-01T09:35:33.171Z,13.70
2023-11-01T09:38:00.594Z,13.80
2023-11-01T09:40:27.647Z,14.00
2023-11-01T09:42:55.873Z,14.10
2023-11-01T09:45:24.199Z,14.20
2023-11-01T09:47:51.650Z,14.40
2023-11-01T09:50:24.158Z,14.50
2023-11-01T09:52:51.964Z,14.60
2023-11-01T09:55:19.705Z,14.70
2023-11-01T09:57:48.202Z,14.80
2023-11-01T10:00:17.200Z,15.00
2023-11-01T10:02:44.770Z,15.10
2023-11-01T10:05:11.452Z,15.00
2023-11-01T10:07:38.098Z,15.00
2023-11-01T10:10:07.807Z,15.10
2023-11-01T10:12:36.092Z,15.20
2023-11-01T10:15:05.843Z,15.40
2023-11-01T10:17:33.015Z,15.50
2023-11-01T10:20:03.361Z,15.70
2023-11-01T10:22:31.614Z,15.80
2023-11-01T10:25:01.229Z,15.90
2023-11-01T10:27:28.783Z,15.90
2023-11-01T10:30:01.688Z,15.80
2023-11-01T10:32:28.452Z,15.80
2023-11-01T10:35:10.995Z,15.90
2023-11-01T10:37:38.647Z,16.00
2023-11-01T10:40:07.599Z,16.10
2023-11-01T10:42:41.385Z,16.20
2023-11-01T10:45:09.790Z,16.40
2023-11-01T10:47:39.799Z,16.40
2023-11-01T10:50:07.665Z,16.40
2023-11-01T10:52:35.387Z,16.60
2023-11-01T10:55:05.951Z,16.60
2023-11-01T10:57:35.257Z,16.70
2023-11-01T11:00:06.402Z,16.70
2023-11-01T11:02:35.915Z,16.70
2023-11-01T11:05:09.162Z,16.70
2023-11-01T11:07:45.980Z,16.60
2023-11-01T11:10:33.267Z,16.60
2023-11-01T11:13:09.381Z,16.70
2023-11-01T11:15:57.561Z,16.80
2023-11-01T11:18:25.757Z,16.80
2023-11-01T11:20:54.786Z,16.80
2023-11-01T11:23:32.388Z,16.90
2023-11-01T11:26:05.821Z,16.90
2023-11-01T11:28:41.003Z,17.10
2023-11-01T11:31:16.445Z,17.10
2023-11-01T11:33:46.735Z,17.10
2023-11-01T11:36:18.827Z,17.20
2023-11-01T11:38:52.913Z,17.20
2023-11-01T11:41:24.155Z,17.30
2023-11-01T11:44:27.343Z,17.40
2023-11-01T11:47:11.715Z,17.50
2023-11-01T11:49:39.232Z,17.60
2023-11-01T11:52:08.828Z,17.30
2023-11-01T11:54:38.981Z,17.30
2023-11-01T11:57:09.943Z,17.10
2023-11-01T11:59:36.988Z,17.00
2023-11-01T12:02:28.508Z,16.90
2023-11-01T12:04:55.562Z,16.70
2023-11-01T12:07:24.088Z,16.60
2023-11-01T12:09:55.285Z,16.40
2023-11-01T12:12:23.545Z,16.30
2023-11-01T12:14:59.383Z,16.30
2023-11-01T12:17:32.869Z,16.30
2023-11-01T12:20:00.234Z,16.20
2023-11-01T12:22:27.359Z,16.10
2023-11-01T12:24:56.446Z,15.90
2023-11-01T12:27:31.473Z,15.80
2023-11-01T12:30:01.941Z,15.80
2023-11-01T12:32:30.988Z,15.80
2023-11-01T12:35:06.329Z,15.90
2023-11-01T12:37:34.160Z,15.90
2023-11-01T12:40:15.607Z,16.10
2023-11-01T12:42:52.308Z,16.40
2023-11-01T12:45:19.836Z,16.50
2023-11-01T12:47:47.958Z,16.70
2023-11-01T12:50:28.705Z,16.80
2023-11-01T12:52:58.773Z,16.90
2023-11-01T12:55:29.483Z,16.90
2023-11-01T12:57:56.844Z,16.90
2023-11-01T13:00:30.112Z,16.90
2023-11-01T13:02:58.304Z,17.00
2023-11-01T13:05:25.562Z,17.10
2023-11-01T13:07:56.624Z,17.10
2023-11-01T13:10:23.628Z,17.00
2023-11-01T13:12:50.229Z,17.10
2023-11-01T13:15:17.713Z,17.10
2023-11-01T13:17:45.261Z,16.90
2023-11-01T13:20:12.950Z,16.70
2023-11-01T13:22:43.004Z,16.50
2023-11-01T13:25:09.971Z,16.30
2023-11-01T13:27:38.227Z,16.20
2023-11-01T13:30:06.417Z,16.00
2023-11-01T13:32:35.404Z,15.90
2023-11-01T13:35:05.217Z,15.80
2023-11-01T13:37:33.486Z,15.70
2023-11-01T13:40:03.393Z,15.60
2023-11-01T13:42:31.664Z,15.60
2023-11-01T13:44:59.091Z,15.60
2023-11-01T13:47:26.821Z,15.50
2023-11-01T13:49:57.191Z,15.50
2023-11-01T13:52:25.126Z,15.50
2023-11-01T13:54:53.126Z,15.50
2023-11-01T13:57:22.080Z,15.40
2023-11-01T13:59:48.847Z,15.50
2023-11-01T14:02:15.670Z,15.50
2023-11-01T14:04:43.308Z,15.40
2023-11-01T14:07:10.112Z,15.50
2023-11-01T14:09:41.161Z,15.40
2023-11-01T14:12:08.449Z,15.40
2023-11-01T14:14:36.313Z,15.30
2023-11-01T14:17:03.471Z,15.40
2023-11-01T14:19:31.743Z,15.30
2023-11-01T14:21:58.439Z,15.30
2023-11-01T14:24:25.304Z,15.20
2023-11-01T14:26:53.563Z,15.20
2023-11-01T14:29:22.621Z,15.10
2023-11-01T14:31:49.872Z,15.10
2023-11-01T14:34:17.890Z,15.20
2023-11-01T14:36:44.976Z,15.30
2023-11-01T14:39:11.919Z,15.30
2023-11-01T14:41:39.666Z,15.30
2023-11-01T14:44:06.634Z,15.30
2023-11-01T14:46:38.972Z,15.30
2023-11-01T14:49:06.973Z,15.40
2023-11-01T14:51:36.419Z,15.40
2023-11-01T14:54:05.203Z,15.30
2023-11-01T14:56:31.968Z,15.30
2023-11-01T14:59:01.489Z,15.20
2023-11-01T15:01:30.842Z,15.20
2023-11-01T15:03:58.670Z,15.00
2023-11-01T15:06:25.879Z,15.00
2023-11-01T15:08:52.510Z,14.90
2023-11-01T15:11:21.640Z,14.80
2023-11-01T15:13:48.302Z,14.60
2023-11-01T15:16:18.268Z,14.40
2023-11-01T15:18:44.934Z,14.30
2023-11-01T15:21:14.346Z,14.10
2023-11-01T15:23:42.502Z,14.00
2023-11-01T15:26:12.140Z,13.80
2023-11-01T15:28:38.918Z,13.70
2023-11-01T15:31:05.772Z,13.50
2023-11-01T15:33:32.991Z,13.40
2023-11-01T15:36:00.152Z,13.30
2023-11-01T15:38:28.253Z,13.10
2023-11-01T15:40:56.292Z,12.90
2023-11-01T15:43:25.493Z,12.80
2023-11-01T15:45:52.563Z,12.70
2023-11-01T15:48:22.641Z,12.60
2023-11-01T15:50:50.809Z,12.40
2023-11-01T15:53:19.589Z,12.30
2023-11-01T15:55:46.659Z,12.20
2023-11-01T15:58:13.402Z,12.00
2023-11-01T16:00:40.049Z,11.90
2023-11-01T16:03:12.362Z,11.80
2023-11-01T16:05:47.940Z,11.70
2023-11-01T16:08:14.896Z,11.60
2023-11-01T16:10:43.924Z,11.60
2023-11-01T16:13:12.743Z,11.40
2023-11-01T16:15:40.673Z,11.40
2023-11-01T16:18:09.155Z,11.30
2023-11-01T16:20:37.229Z,11.30
2023-11-01T16:23:03.956Z,11.30
2023-11-01T16:25:30.604Z,11.20
2023-11-01T16:27:57.334Z,11.20
2023-11-01T16:30:24.525Z,11.10
2023-11-01T16:32:56.268Z,11.10
2023-11-01T16:35:25.823Z,11.10
2023-11-01T16:37:54.864Z,11.00
2023-11-01T16:40:22.618Z,11.00
2023-11-01T16:42:49.388Z,11.00
2023-11-01T16:45:16.110Z,11.00
2023-11-01T16:47:45.954Z,10.90
2023-11-01T16:50:12.726Z,10.90
2023-11-01T16:52:39.483Z,10.80
2023-11-01T16:55:08.430Z,10.80
2023-11-01T16:57:36.615Z,10.80
2023-11-01T17:00:05.015Z,10.70
2023-11-01T17:02:42.625Z,10.60
2023-11-01T17:05:18.640Z,10.60
2023-11-01T17:07:45.332Z,10.50
2023-11-01T17:10:13.330Z,10.40
2023-11-01T17:12:40.027Z,10.30
2023-11-01T17:15:09.044Z,10.20
2023-11-01T17:17:37.823Z,10.10
2023-11-01T17:20:05.711Z,10.00
2023-11-01T17:22:34.821Z,9.90
2023-11-01T17:25:01.468Z,9.80
2023-11-01T17:27:35.044Z,9.80
2023-11-01T17:30:01.861Z,9.70
2023-11-01T17:32:31.495Z,9.60
2023-11-01T17:34:58.388Z,9.50
2023-11-01T17:37:26.623Z,9.50
2023-11-01T17:39:59.497Z,9.40
2023-11-01T17:42:26.902Z,9.40
2023-11-01T17:44:55.696Z,9.40
2023-11-01T17:47:24.921Z,9.30
2023-11-01T17:49:57.849Z,9.40
2023-11-01T17:52:32.040Z,9.30
2023-11-01T17:54:59.629Z,9.40
2023-11-01T17:57:26.518Z,9.40
2023-11-01T17:59:54.123Z,9.40
2023-11-01T18:02:28.314Z,9.30
2023-11-01T18:04:56.126Z,9.40
2023-11-01T18:07:25.444Z,9.40
2023-11-01T18:09:52.766Z,9.40
2023-11-01T18:12:27.647Z,9.40
2023-11-01T18:14:55.789Z,9.30
2023-11-01T18:17:23.447Z,9.30
2023-11-01T18:19:50.566Z,9.30
2023-11-01T18:22:34.330Z,9.30
2023-11-01T18:25:03.118Z,9.30
2023-11-01T18:27:29.938Z,9.30
2023-11-01T18:29:56.674Z,9.30
2023-11-01T18:32:24.504Z,9.30
2023-11-01T18:34:52.192Z,9.30
2023-11-01T18:37:19.436Z,9.30
2023-11-01T18:39:49.500Z,9.20
2023-11-01T18:42:29.807Z,9.20
2023-11-01T18:44:59.417Z,9.20
2023-11-01T18:47:30.306Z,9.20
2023-11-01T18:50:03.216Z,9.20
2023-11-01T18:52:31.435Z,9.10
2023-11-01T18:54:59.151Z,9.20
2023-11-01T18:57:35.528Z,9.10
2023-11-01T19:00:03.508Z,9.10
2023-11-01T19:02:35.870Z,9.10
2023-11-01T19:05:04.981Z,9.00
2023-11-01T19:07:33.799Z,9.00
2023-11-01T19:10:01.808Z,8.90
2023-11-01T19:12:29.043Z,8.90
2023-11-01T19:14:56.525Z,8.90
2023-11-01T19:17:29.937Z,8.80
2023-11-01T19:19:59.568Z,8.80
2023-11-01T19:22:26.554Z,8.80
2023-11-01T19:24:58.609Z,8.80
2023-11-01T19:27:25.729Z,8.70
2023-11-01T19:29:52.595Z,8.70
2023-11-01T19:32:19.563Z,8.70
2023-11-01T19:34:46.715Z,8.70
2023-11-01T19:37:13.518Z,8.60
2023-11-01T19:39:42.174Z,8.60
2023-11-01T19:42:08.945Z,8.50
2023-11-01T19:44:38.689Z,8.50
2023-11-01T19:47:13.035Z,8.50
2023-11-01T19:49:40.023Z,8.40
2023-11-01T19:52:09.265Z,8.40
2023-11-01T19:54:37.078Z,8.50
2023-11-01T19:57:06.369Z,8.50
2023-11-01T19:59:35.288Z,8.50
2023-11-01T20:02:05.530Z,8.50
2023-11-01T20:04:33.038Z,8.50
2023-11-01T20:07:00.380Z,8.60
2023-11-01T20:09:27.388Z,8.60
2023-11-01T20:12:03.384Z,8.70
2023-11-01T20:14:32.775Z,8.70
2023-11-01T20:17:00.537Z,8.80
2023-11-01T20:19:27.220Z,8.80
2023-11-01T20:21:53.924Z,8.80
2023-11-01T20:24:22.459Z,8.90
2023-11-01T20:26:49.672Z,8.90
2023-11-01T20:29:17.232Z,9.00
2023-11-01T20:31:45.861Z,9.00
2023-11-01T20:34:12.850Z,9.00
2023-11-01T20:36:41.378Z,9.10
2023-11-01T20:39:10.541Z,9.00
2023-11-01T20:41:40.395Z,9.10
2023-11-01T20:44:07.238Z,9.10
2023-11-01T20:46:36.972Z,9.00
2023-11-01T20:49:03.813Z,9.00
2023-11-01T20:51:31.686Z,8.90
2023-11-01T20:54:00.075Z,8.80
2023-11-01T20:56:28.118Z,8.80
2023-11-01T20:58:57.891Z,8.70
2023-11-01T21:01:25.068Z,8.60
2023-11-01T21:03:52.409Z,8.50
2023-11-01T21:06:19.202Z,8.40
2023-11-01T21:08:48.067Z,8.30
2023-11-01T21:11:19.157Z,8.20
2023-11-01T21:13:47.074Z,8.10
2023-11-01T21:16:17.737Z,8.00
2023-11-01T21:18:45.880Z,8.00
2023-11-01T21:21:14.540Z,7.80
2023-11-01T21:23:42.739Z,7.80
2023-11-01T21:26:09.695Z,7.80
2023-11-01T21:28:40.543Z,7.70
2023-11-01T21:31:12.674Z,7.60
2023-11-01T21:33:43.727Z,7.50
2023-11-01T21:36:11.577Z,7.40
2023-11-01T21:38:39.947Z,7.40
2023-11-01T21:41:08.806Z,7.30
2023-11-01T21:43:40.966Z,7.20
2023-11-01T21:46:15.967Z,7.10
2023-11-01T21:48:46.239Z,7.10
2023-11-01T21:51:17.591Z,7.00
2023-11-01T21:53:47.141Z,7.00
2023-11-01T21:56:16.268Z,6.90
2023-11-01T21:58:43.660Z,6.90
2023-11-01T22:01:11.197Z,6.80
2023-11-01T22:03:43.314Z,6.80
2023-11-01T22:06:30.239Z,6.70
2023-11-01T22:09:09.183Z,6.70
2023-11-01T22:11:37.418Z,6.70
2023-11-01T22:14:11.968Z,6.70
2023-11-01T22:16:46.624Z,6.60
2023-11-01T22:19:33.158Z,6.60
2023-11-01T22:22:21.671Z,6.60
2023-11-01T22:24:48.754Z,6.50
2023-11-01T22:27:16.529Z,6.50
2023-11-01T22:29:44.603Z,6.50
2023-11-01T22:32:20.440Z,6.50
2023-11-01T22:34:51.982Z,6.50
2023-11-01T22:37:19.130Z,6.50
2023-11-01T22:39:52.490Z,6.50
2023-11-01T22:42:29.574Z,6.50
2023-11-01T22:44:56.928Z,6.40
2023-11-01T22:47:24.062Z,6.40
2023-11-01T22:49:54.251Z,6.30
2023-11-01T22:52:21.937Z,6.30
2023-11-01T22:54:51.335Z,6.30
2023-11-01T22:57:19.570Z,6.40
2023-11-01T22:59:47.879Z,6.30
2023-11-01T23:02:16.704Z,6.30
2023-11-01T23:04:43.994Z,6.30
2023-11-01T23:07:15.625Z,6.30
2023-11-01T23:09:45.370Z,6.20
2023-11-01T23:12:13.663Z,6.20
2023-11-01T23:14:45.535Z,6.10
2023-11-01T23:17:14.563Z,6.00
2023-11-01T23:19:42.718Z,6.00
2023-11-01T23:22:12.530Z,5.90
2023-11-01T23:24:41.720Z,5.80
2023-11-01T23:27:09.523Z,5.80
2023-11-01T23:29:39.079Z,5.70
2023-11-01T23:32:12.415Z,5.60
2023-11-01T23:34:54.922Z,5.60
2023-11-01T23:37:23.977Z,5.50
2023-11-01T23:39:51.835Z,5.50
2023-11-01T23:42:20.185Z,5.40
2023-11-01T23:44:48.600Z,5.40
2023-11-01T23:47:48.254Z,5.40
2023-11-01T23:50:33.385Z,5.40
2023-11-01T23:53:05.105Z,5.30
2023-11-01T23:55:32.668Z,5.30
2023-11-01T23:58:03.402Z,5.30
